Latest Coastal Weather Observations for Larapuna (Eddystone Point)

IDT60701

Issued at 4:51 am EST Thursday 26 May 2016 (issued every 10 minutes, with the page automatically refreshed every 10 minutes)

About coastal observations | Map of coastal stations | Coastal observations for TAS | Marine services | Other Formats
Station Details ID: 092045 Name: LARAPUNA (EDDYSTONE POINT) Lat: -40.99 Lon: 148.35 Height: 19.7 m
Data from the previous 72 hours. | See also: Recent months at Larapuna (Eddystone Point)
Date/Time
EST
Temp

°C
Wind Pressure Rain
since 9am
mm
Weather Cloud Vis
km
Sea
Height
m
Swell
Dir
 
Speed
knots
Gust
knots
hPa Trend Height
m
Period
s
Dir
26/04:30am 12.4 NNW 18 25 1002.7 - 0.2 - - - - - - -
26/04:00am 12.4 NNW 17 23 1003.0 - 0.2 - - - - - - -
26/03:30am 12.4 NNW 20 30 1003.0 - 0.2 - - - - - - -
26/03:29am 12.5 NNW 19 30 1003.0 - 0.2 - - - - - - -
26/03:00am 12.2 NNW 16 21 1003.4 - 0.0 - - - - - - -
26/02:30am 12.3 NW 19 26 1003.8 - 0.0 - - - - - - -
26/02:00am 12.3 NNW 17 23 1004.0 - 0.0 - - - - - - -
26/01:30am 12.5 NNW 15 21 1004.4 - 0.0 - - - - - - -
26/01:00am 13.1 NW 18 25 1004.4 - 0.0 - - - - - - -
26/12:30am 13.1 NW 17 21 1004.9 - 0.0 - - - - - - -
26/12:00am 13.1 NNW 19 26 1005.4 - 0.0 - - - - - - -
 
Date/Time
EST
Temp

°C
Wind Pressure Rain
since 9am
mm
Weather Cloud Vis
km
Sea
Height
m
Swell
Dir
 
Speed
knots
Gust
knots
hPa Trend Height
m
Period
s
Dir
25/11:30pm 13.3 NW 14 21 1005.6 - 0.0 - - - - - - -
25/11:00pm 13.4 NW 15 20 1006.1 - 0.0 - - - - - - -
25/10:30pm 13.5 NW 18 26 1006.2 - 0.0 - - - - - - -
25/10:00pm 13.7 NW 22 29 1006.2 - 0.0 - - - - - - -
25/09:35pm 14.0 NW 19 29 1006.3 - 0.0 - - - - - - -
25/09:30pm 14.0 NW 19 26 1006.2 - 0.0 - - - - - - -
25/09:00pm 14.3 NW 19 27 1006.3 - 0.0 - - - - - - -
25/08:51pm 14.4 NW 20 27 1006.3 - 0.0 - - - - - - -
25/08:30pm 13.9 NW 13 17 1006.3 - 0.0 - - - - - - -
25/08:00pm 13.9 NNW 12 16 1006.7 - 0.0 - - - - - - -
25/07:30pm 13.6 NNW 9 12 1007.0 - 0.0 - - - - - - -
25/07:00pm 12.7 NNW 8 9 1007.1 - 0.0 - - - - - - -
25/06:30pm 12.2 NNW 5 6 1007.5 - 0.0 - - - - - - -
25/06:00pm 12.0 NW 6 6 1007.6 - 0.0 - - - - - - -
25/05:30pm 11.9 NW 5 7 1007.7 - 0.0 - - - - - - -
25/05:00pm 12.2 NW 7 9 1007.9 - 0.0 - - - - - - -
25/04:30pm 12.5 NNW 7 9 1007.8 - 0.0 - - - - - - -
25/04:00pm 12.7 NW 6 9 1008.1 - 0.0 - - - - - - -
25/03:30pm 12.7 NW 6 8 1008.5 - 0.0 - - - - - - -
25/03:00pm 12.7 WNW 9 12 1008.6 - 0.0 - - - - - - -
25/02:30pm 12.4 WNW 13 18 1008.8 - 0.0 - - - - - - -
25/02:00pm 12.9 WNW 13 19 1009.3 - 0.0 - - - - - - -
25/01:30pm 13.3 WNW 13 19 1009.3 - 0.0 - - - - - - -
25/01:00pm 13.0 WNW 13 19 1009.6 - 0.0 - - - - - - -
25/12:30pm 11.8 W 5 11 1009.4 - 0.0 - - - - - - -
25/12:00pm 10.8 W 5 7 1010.7 - 0.0 - - - - - - -
25/11:30am 10.6 NW 7 9 1011.0 - 0.0 - - - - - - -
25/11:00am 10.5 NW 7 10 1011.6 - 0.0 - - - - - - -
25/10:30am 9.6 NNW 5 7 1012.3 - 0.0 - - - - - - -
25/10:00am 9.1 WNW 6 8 1013.0 - 0.0 - - - - - - -
25/09:30am 8.5 WNW 5 7 1013.0 - 0.0 - - - - - - -
25/09:00am 7.9 WNW 7 9 1013.3 - 0.0 - - - - - - -
25/08:30am 6.6 WNW 7 9 1013.3 - 0.0 - - - - - - -
25/08:00am 7.3 WNW 6 7 1013.2 - 0.0 - - - - - - -
25/07:30am 6.4 CALM 0 0 1013.2 - 0.0 - - - - - - -
25/07:00am 6.1 WSW 5 7 1013.2 - 0.0 - - - - - - -
25/06:30am 4.8 WSW 7 7 1013.5 - 0.0 - - - - - - -
25/06:00am 5.1 SW 6 8 1013.8 - 0.0 - - - - - - -
25/05:30am 4.3 WSW 8 9 1014.2 - 0.0 - - - - - - -
25/05:00am 5.0 WSW 7 8 1014.3 - 0.0 - - - - - - -
25/04:30am 4.9 WSW 8 9 1014.0 - 0.0 - - - - - - -
25/04:00am 6.2 SW 9 10 1013.9 - 0.0 - - - - - - -
25/03:30am 7.5 SSW 11 13 1013.6 - 0.0 - - - - - - -
25/03:00am 7.2 SSW 9 11 1014.0 - 0.0 - - - - - - -
25/02:30am 9.1 S 14 17 1014.2 - 0.0 - - - - - - -
25/02:00am 9.0 S 17 19 1014.4 - 0.0 - - - - - - -
25/01:30am 9.1 S 16 19 1014.6 - 0.0 - - - - - - -
25/01:00am 8.9 S 17 20 1014.6 - 0.0 - - - - - - -
25/12:30am 8.1 SSW 12 15 1015.2 - 0.0 - - - - - - -
25/12:00am 8.9 S 15 17 1015.0 - 0.0 - - - - - - -
 
Date/Time
EST
Temp

°C
Wind Pressure Rain
since 9am
mm
Weather Cloud Vis
km
Sea
Height
m
Swell
Dir
 
Speed
knots
Gust
knots
hPa Trend Height
m
Period
s
Dir
24/11:30pm 7.3 SSW 9 10 1015.5 - 0.0 - - - - - - -
24/11:00pm 7.6 SW 11 12 1015.9 - 0.0 - - - - - - -
24/10:30pm 8.8 SW 13 16 1015.8 - 0.0 - - - - - - -
24/10:00pm 8.6 SW 12 13 1015.7 - 0.0 - - - - - - -
24/09:30pm 9.2 SSW 12 16 1015.7 - 0.0 - - - - - - -
24/09:00pm 8.0 SW 8 15 1015.8 - 0.0 - - - - - - -
24/08:30pm 10.2 SSW 17 20 1015.5 - 0.0 - - - - - - -
24/08:00pm 9.4 SSW 12 17 1015.5 - 0.0 - - - - - - -
24/07:30pm 9.4 SW 11 14 1015.6 - 0.0 - - - - - - -
24/07:00pm 9.6 SW 10 12 1015.3 - 0.0 - - - - - - -
24/06:30pm 9.5 SW 10 12 1015.1 - 0.0 - - - - - - -
24/06:00pm 10.7 SSW 15 18 1014.7 - 0.0 - - - - - - -
24/05:30pm 10.8 SW 13 16 1014.5 - 0.0 - - - - - - -
24/05:00pm 11.2 SSW 15 18 1014.1 - 0.0 - - - - - - -
24/04:30pm 12.1 SSW 17 20 1013.9 - 0.0 - - - - - - -
24/04:00pm 12.7 SSW 17 21 1013.7 - 0.0 - - - - - - -
24/03:30pm 13.4 SSW 19 23 1013.4 - 0.0 - - - - - - -
24/03:00pm 13.7 SSW 21 25 1013.3 - 0.0 - - - - - - -
24/02:30pm 13.8 SSW 21 25 1013.1 - 0.0 - - - - - - -
24/02:00pm 13.7 S 19 21 1012.9 - 0.0 - - - - - - -
24/01:30pm 13.6 S 5 13 1012.9 - 0.0 - - - - - - -
24/01:00pm 13.6 ENE 5 9 1012.7 - 0.0 - - - - - - -
24/12:30pm 14.1 NNE 3 6 1013.0 - 0.0 - - - - - - -
24/12:00pm 13.4 ESE 3 5 1013.3 - 0.0 - - - - - - -
24/11:30am 12.9 SSE 3 5 1013.4 - 0.0 - - - - - - -
24/11:00am 13.4 SSW 6 8 1013.7 - 0.0 - - - - - - -
24/10:30am 12.5 SW 7 8 1013.7 - 0.0 - - - - - - -
24/10:00am 11.3 WSW 5 6 1013.6 - 0.0 - - - - - - -
24/09:30am 10.5 WSW 7 9 1013.5 - 0.0 - - - - - - -
24/09:00am 9.7 SW 7 9 1013.2 - 0.6 - - - - - - -
24/08:30am 8.3 WSW 8 10 1012.9 - 0.6 - - - - - - -
24/08:00am 7.0 W 9 13 1012.4 - 0.6 - - - - - - -
24/07:30am 6.3 W 10 12 1012.1 - 0.6 - - - - - - -
24/07:00am 5.9 W 11 13 1011.7 - 0.6 - - - - - - -
24/06:30am 6.3 W 8 10 1011.6 - 0.6 - - - - - - -
24/06:00am 6.7 W 11 13 1011.2 - 0.6 - - - - - - -
24/05:30am 7.3 W 12 15 1011.0 - 0.6 - - - - - - -
24/05:00am 7.6 W 13 17 1011.0 - 0.6 - - - - - - -
24/04:30am 8.0 W 11 15 1011.0 - 0.6 - - - - - - -
24/04:00am 8.6 W 13 17 1011.0 - 0.6 - - - - - - -
24/03:30am 8.4 W 14 18 1011.2 - 0.6 - - - - - - -
24/03:00am 7.9 WNW 9 12 1011.5 - 0.6 - - - - - - -
24/02:30am 7.1 WNW 7 10 1011.7 - 0.6 - - - - - - -
24/02:00am 7.5 WNW 11 14 1011.5 - 0.6 - - - - - - -
24/01:30am 7.1 WNW 9 13 1011.4 - 0.6 - - - - - - -
24/01:00am 7.3 WNW 9 11 1011.7 - 0.6 - - - - - - -
24/12:30am 7.6 WNW 11 15 1011.7 - 0.6 - - - - - - -
24/12:00am 7.7 WNW 14 18 1011.7 - 0.6 - - - - - - -
 
Date/Time
EST
Temp

°C
Wind Pressure Rain
since 9am
mm
Weather Cloud Vis
km
Sea
Height
m
Swell
Dir
 
Speed
knots
Gust
knots
hPa Trend Height
m
Period
s
Dir
23/11:30pm 7.6 W 14 18 1011.4 - 0.6 - - - - - - -
23/11:00pm 7.8 W 15 19 1011.4 - 0.6 - - - - - - -
23/10:30pm 7.4 W 12 16 1011.2 - 0.6 - - - - - - -
23/10:00pm 7.8 W 16 21 1010.9 - 0.6 - - - - - - -
23/09:30pm 8.3 W 15 20 1010.8 - 0.6 - - - - - - -
23/09:00pm 8.4 W 15 20 1010.5 - 0.6 - - - - - - -
23/08:30pm 8.7 W 16 20 1010.0 - 0.6 - - - - - - -
23/08:00pm 9.2 W 14 22 1009.4 - 0.6 - - - - - - -
23/07:30pm 9.8 W 14 20 1009.1 - 0.6 - - - - - - -
23/07:00pm 10.1 W 14 19 1008.6 - 0.6 - - - - - - -
23/06:30pm 10.5 W 16 25 1008.0 - 0.6 - - - - - - -
23/06:23pm 10.6 W 15 25 1007.8 - 0.6 - - - - - - -
23/06:00pm 10.9 W 19 26 1007.2 - 0.6 - - - - - - -
23/05:30pm 11.2 W 20 30 1006.9 - 0.6 - - - - - - -
23/05:00pm 11.7 W 21 32 1006.4 - 0.6 - - - - - - -
23/04:30pm 12.3 W 21 33 1005.7 - 0.6 - - - - - - -
23/04:00pm 12.9 W 21 31 1005.4 - 0.6 - - - - - - -
23/03:30pm 13.7 W 19 31 1005.2 - 0.6 - - - - - - -
23/03:00pm 13.8 WNW 22 38 1004.6 - 0.6 - - - - - - -
23/02:36pm 14.5 W 21 32 1004.2 - 0.6 - - - - - - -
23/02:30pm 14.6 W 21 28 1004.2 - 0.6 - - - - - - -
23/02:00pm 15.0 W 20 31 1003.9 - 0.6 - - - - - - -
23/01:36pm 15.0 W 17 29 1003.6 - 0.6 - - - - - - -
23/01:30pm 14.6 W 17 25 1003.5 - 0.6 - - - - - - -
23/01:00pm 15.2 W 17 27 1002.9 - 0.6 - - - - - - -
23/12:31pm 14.9 W 17 27 1002.8 - 0.6 - - - - - - -
23/12:30pm 14.7 W 18 27 1002.8 - 0.6 - - - - - - -
23/12:00pm 13.4 WNW 14 20 1003.1 - 0.6 - - - - - - -
23/11:41am 13.3 WNW 15 27 1003.5 - 0.6 - - - - - - -
23/11:30am 13.2 WNW 15 21 1003.6 - 0.6 - - - - - - -
23/11:00am 13.3 NW 21 33 1003.6 - 0.6 - - - - - - -
23/10:36am 13.3 NW 18 30 1003.8 - 0.6 - - - - - - -
23/10:30am 13.1 NW 17 22 1004.1 - 0.6 - - - - - - -
23/10:00am 12.3 NW 19 28 1004.9 - 0.6 - - - - - - -
23/09:58am 12.5 NW 17 28 1005.0 - 0.4 - - - - - - -
23/09:55am 12.8 NW 16 24 1005.0 - 0.0 - - - - - - -
23/09:30am 13.0 NW 11 14 1004.8 - 0.0 - - - - - - -
23/09:00am 12.4 NNW 12 15 1005.0 - 2.6 - - - - - - -
23/08:30am 12.3 NW 14 17 1005.1 - 2.6 - - - - - - -
23/08:00am 12.1 NW 12 17 1005.3 - 2.6 - - - - - - -
23/07:30am 12.0 NNW 11 15 1005.6 - 2.4 - - - - - - -
23/07:00am 11.8 WNW 10 13 1005.3 - 2.2 - - - - - - -
23/06:30am 12.0 WNW 13 19 1005.6 - 2.2 - - - - - - -
23/06:00am 12.0 WNW 18 27 1005.6 - 1.8 Rain - - - - - -
23/05:30am 12.5 W 23 35 1005.3 - 1.4 - - - - - - -
23/05:07am 14.5 NW 25 35 1004.8 - 1.2 - - - - - - -
23/05:00am 15.3 NW 23 31 1004.5 - 1.2 - - - - - - -

Other Formats:

Comma delimited format used in spreadsheet applications
http://www.bom.gov.au/fwo/IDT60701/IDT60701.94983.axf

JavaScript Object Notation format (JSON) in row-major order
http://www.bom.gov.au/fwo/IDT60701/IDT60701.94983.json